createdAt,value
2023-03-08T00:01:23.654Z,99118.34
2023-03-08T00:05:27.240Z,99129.13
2023-03-08T00:09:31.667Z,99120.41
2023-03-08T00:13:34.833Z,99115.03
2023-03-08T00:17:38.743Z,99131.00
2023-03-08T00:21:41.936Z,99122.06
2023-03-08T00:25:46.324Z,99118.34
2023-03-08T00:29:49.399Z,99113.81
2023-03-08T00:33:54.820Z,99094.31
2023-03-08T00:37:57.884Z,99105.09
2023-03-08T00:42:02.342Z,99099.88
2023-03-08T00:46:05.774Z,99093.47
2023-03-08T00:50:10.896Z,99099.72
2023-03-08T00:54:14.041Z,99096.00
2023-03-08T00:58:18.874Z,99102.94
2023-03-08T01:02:21.989Z,99090.13
2023-03-08T01:06:25.186Z,99087.91
2023-03-08T01:10:28.365Z,99089.75
2023-03-08T01:14:33.655Z,99081.66
2023-03-08T01:18:36.802Z,99081.03
2023-03-08T01:22:40.754Z,99073.16
2023-03-08T01:26:44.294Z,99063.84
2023-03-08T01:30:48.780Z,99062.81
2023-03-08T01:34:52.008Z,99057.81
2023-03-08T01:38:55.719Z,99047.03
2023-03-08T01:42:58.914Z,99032.53
2023-03-08T01:47:03.928Z,99022.63
2023-03-08T01:51:33.059Z,99023.44
2023-03-08T01:55:36.326Z,99021.59
2023-03-08T01:59:40.503Z,99016.75
2023-03-08T02:03:46.795Z,99015.56
2023-03-08T02:07:50.824Z,98997.34
2023-03-08T02:11:58.101Z,99007.66
2023-03-08T02:16:03.782Z,99004.31
2023-03-08T02:20:16.046Z,99013.06
2023-03-08T02:24:22.757Z,99009.34
2023-03-08T02:28:28.086Z,99000.97
2023-03-08T02:32:31.198Z,98986.50
2023-03-08T02:36:36.357Z,98987.34
2023-03-08T02:40:41.375Z,98975.72
2023-03-08T02:44:45.461Z,98974.91
2023-03-08T02:48:49.229Z,98960.22
2023-03-08T02:52:53.375Z,98967.47
2023-03-08T02:56:57.816Z,98964.13
2023-03-08T03:01:00.974Z,98952.50
2023-03-08T03:05:05.664Z,98950.19
2023-03-08T03:09:09.848Z,98946.22
2023-03-08T03:13:15.223Z,98940.66
2023-03-08T03:17:19.436Z,98926.72
2023-03-08T03:21:23.992Z,98920.69
2023-03-08T03:25:27.187Z,98917.44
2023-03-08T03:29:31.989Z,98924.25
2023-03-08T03:33:46.367Z,98918.41
2023-03-08T03:37:49.724Z,98907.66
2023-03-08T03:41:53.209Z,98908.69
2023-03-08T03:45:58.636Z,98903.09
2023-03-08T03:50:02.799Z,98896.03
2023-03-08T03:54:13.137Z,98893.16
2023-03-08T03:58:18.314Z,98883.41
2023-03-08T04:02:23.120Z,98884.44
2023-03-08T04:06:34.393Z,98879.06
2023-03-08T04:10:37.606Z,98888.16
2023-03-08T04:14:41.545Z,98864.97
2023-03-08T04:18:49.652Z,98868.84
2023-03-08T04:22:52.931Z,98859.56
2023-03-08T04:27:02.994Z,98845.66
2023-03-08T04:31:14.264Z,98840.00
2023-03-08T04:35:19.254Z,98829.84
2023-03-08T04:39:26.869Z,98829.19
2023-03-08T04:43:30.446Z,98817.16
2023-03-08T04:47:33.755Z,98811.28
2023-03-08T04:51:39.262Z,98810.47
2023-03-08T04:55:44.396Z,98803.16
2023-03-08T04:59:48.083Z,98796.75
2023-03-08T05:03:52.800Z,98790.09
2023-03-08T05:08:04.273Z,98774.78
2023-03-08T05:12:09.120Z,98771.06
2023-03-08T05:16:21.633Z,98768.19
2023-03-08T05:20:24.869Z,98766.06
2023-03-08T05:24:31.693Z,98752.81
2023-03-08T05:28:38.406Z,98750.75
2023-03-08T05:32:42.545Z,98734.22
2023-03-08T05:36:46.875Z,98717.59
2023-03-08T05:40:52.249Z,98715.91
2023-03-08T05:44:56.534Z,98710.94
2023-03-08T05:49:05.153Z,98689.66
2023-03-08T05:53:10.848Z,98677.44
2023-03-08T05:57:15.654Z,98675.56
2023-03-08T06:01:20.732Z,98664.81
2023-03-08T06:05:23.973Z,98653.41
2023-03-08T06:09:30.814Z,98640.19
2023-03-08T06:13:35.989Z,98637.47
2023-03-08T06:17:39.600Z,98620.72
2023-03-08T06:21:42.833Z,98626.50
2023-03-08T06:25:46.043Z,98619.47
2023-03-08T06:29:51.023Z,98621.50
2023-03-08T06:33:56.040Z,98616.97
2023-03-08T06:38:02.472Z,98612.81
2023-03-08T06:42:07.578Z,98603.78
2023-03-08T06:46:17.015Z,98589.88
2023-03-08T06:50:20.674Z,98588.41
2023-03-08T06:54:26.372Z,98587.19
2023-03-08T06:58:29.636Z,98589.22
2023-03-08T07:02:34.758Z,98582.19
2023-03-08T07:06:39.912Z,98578.06
2023-03-08T07:10:43.096Z,98581.81
2023-03-08T07:14:46.286Z,98573.09
2023-03-08T07:18:50.777Z,98578.47
2023-03-08T07:22:54.691Z,98571.44
2023-03-08T07:26:57.937Z,98561.13
2023-03-08T07:31:01.335Z,98554.09
2023-03-08T07:35:07.043Z,98537.72
2023-03-08T07:39:10.294Z,98536.69
2023-03-08T07:43:13.511Z,98538.13
2023-03-08T07:47:30.640Z,98528.84
2023-03-08T07:51:35.272Z,98520.13
2023-03-08T07:55:38.786Z,98514.56
2023-03-08T07:59:42.143Z,98516.22
2023-03-08T08:03:45.418Z,98499.44
2023-03-08T08:07:50.322Z,98503.59
2023-03-08T08:11:53.456Z,98502.78
2023-03-08T08:16:01.001Z,98474.84
2023-03-08T08:20:06.796Z,98465.09
2023-03-08T08:24:11.408Z,98462.63
2023-03-08T08:28:16.418Z,98468.03
2023-03-08T08:32:19.545Z,98457.88
2023-03-08T08:36:22.856Z,98455.59
2023-03-08T08:40:32.104Z,98450.00
2023-03-08T08:44:35.293Z,98434.31
2023-03-08T08:48:39.096Z,98404.72
2023-03-08T08:52:42.419Z,98413.00
2023-03-08T08:56:47.161Z,98423.38
2023-03-08T09:00:50.947Z,98427.50
2023-03-08T09:04:55.591Z,98429.16
2023-03-08T09:08:59.968Z,98421.72
2023-03-08T09:13:04.705Z,98405.34
2023-03-08T09:17:08.011Z,98390.91
2023-03-08T09:21:12.066Z,98397.97
2023-03-08T09:25:15.610Z,98399.81
2023-03-08T09:29:20.670Z,98396.72
2023-03-08T09:33:24.074Z,98407.50
2023-03-08T09:37:27.747Z,98397.59
2023-03-08T09:41:42.718Z,98406.06
2023-03-08T09:45:47.533Z,98399.66
2023-03-08T09:49:55.621Z,98396.13
2023-03-08T09:54:03.396Z,98399.44
2023-03-08T09:58:17.634Z,98371.91
2023-03-08T10:02:34.302Z,98367.13
2023-03-08T10:06:45.414Z,98364.66
2023-03-08T10:10:55.960Z,98364.91
2023-03-08T10:15:04.807Z,98358.25
2023-03-08T10:19:17.332Z,98360.97
2023-03-08T10:23:23.222Z,98359.72
2023-03-08T10:27:29.606Z,98347.91
2023-03-08T10:31:34.160Z,98335.06
2023-03-08T10:35:40.488Z,98321.75
2023-03-08T10:39:53.466Z,98309.94
2023-03-08T10:43:58.425Z,98304.28
2023-03-08T10:48:03.942Z,98296.38
2023-03-08T10:52:28.765Z,98299.66
2023-03-08T10:56:37.849Z,98294.50
2023-03-08T11:00:44.956Z,98309.78
2023-03-08T11:05:02.901Z,98313.94
2023-03-08T11:09:22.067Z,98311.44
2023-03-08T11:13:31.424Z,98303.06
2023-03-08T11:17:39.596Z,98297.28
2023-03-08T11:21:52.425Z,98290.38
2023-03-08T11:26:03.283Z,98295.31
2023-03-08T11:30:19.474Z,98290.91
2023-03-08T11:34:47.727Z,98288.63
2023-03-08T11:39:07.505Z,98286.00
2023-03-08T11:43:23.445Z,98301.00
2023-03-08T11:48:23.340Z,98293.59
2023-03-08T11:52:33.923Z,98304.91
2023-03-08T11:56:45.454Z,98290.19
2023-03-08T12:00:53.472Z,98265.81
2023-03-08T12:05:02.513Z,98269.34
2023-03-08T12:09:11.012Z,98253.81
2023-03-08T12:13:21.411Z,98260.47
2023-03-08T12:17:31.751Z,98242.09
2023-03-08T12:21:43.015Z,98244.72
2023-03-08T12:25:54.429Z,98258.38
2023-03-08T12:30:05.885Z,98244.97
2023-03-08T12:34:27.410Z,98236.38
2023-03-08T12:38:36.881Z,98232.44
2023-03-08T12:42:49.241Z,98236.81
2023-03-08T12:47:02.780Z,98225.81
2023-03-08T12:51:21.531Z,98229.00
2023-03-08T12:55:31.950Z,98228.59
2023-03-08T12:59:38.784Z,98226.13
2023-03-08T13:03:43.685Z,98219.28
2023-03-08T13:08:03.089Z,98223.69
2023-03-08T13:12:21.560Z,98228.31
2023-03-08T13:16:36.451Z,98229.03
2023-03-08T13:21:05.712Z,98215.41
2023-03-08T13:25:24.337Z,98215.78
2023-03-08T13:29:31.913Z,98216.13
2023-03-08T13:33:43.204Z,98207.34
2023-03-08T13:37:54.620Z,98218.97
2023-03-08T13:42:09.135Z,98190.66
2023-03-08T13:46:17.261Z,98186.97
2023-03-08T13:50:24.964Z,98204.97
2023-03-08T13:54:30.594Z,98191.31
2023-03-08T13:58:40.442Z,98196.78
2023-03-08T14:02:47.152Z,98195.69
2023-03-08T14:06:52.724Z,98185.47
2023-03-08T14:11:00.372Z,98177.63
2023-03-08T14:15:08.842Z,98192.69
2023-03-08T14:19:25.791Z,98178.16
2023-03-08T14:23:29.324Z,98179.72
2023-03-08T14:27:38.019Z,98167.81
2023-03-08T14:31:56.533Z,98177.22
2023-03-08T14:36:01.645Z,98175.72
2023-03-08T14:40:22.291Z,98182.19
2023-03-08T14:44:29.432Z,98190.13
2023-03-08T14:48:36.133Z,98178.44
2023-03-08T14:52:47.358Z,98182.28
2023-03-08T14:56:51.297Z,98188.44
2023-03-08T15:00:58.482Z,98184.00
2023-03-08T15:05:03.840Z,98183.47
2023-03-08T15:09:09.847Z,98183.47
2023-03-08T15:13:18.422Z,98172.84
2023-03-08T15:17:22.874Z,98194.69
2023-03-08T15:21:30.945Z,98184.44
2023-03-08T15:25:36.587Z,98188.53
2023-03-08T15:29:39.864Z,98181.53
2023-03-08T15:33:43.407Z,98174.00
2023-03-08T15:42:35.668Z,98177.56
2023-03-08T15:46:39.338Z,98180.69
2023-03-08T15:50:44.105Z,98187.00
2023-03-08T15:54:50.267Z,98196.06
2023-03-08T15:58:55.659Z,98195.28
2023-03-08T16:02:59.774Z,98189.09
2023-03-08T16:07:04.349Z,98196.94
2023-03-08T16:11:08.788Z,98189.91
2023-03-08T16:15:14.083Z,98185.41
2023-03-08T16:19:17.386Z,98194.06
2023-03-08T16:23:25.231Z,98182.72
2023-03-08T16:27:30.528Z,98189.16
2023-03-08T16:31:35.927Z,98193.94
2023-03-08T16:35:39.277Z,98191.44
2023-03-08T16:39:42.400Z,98187.50
2023-03-08T16:45:38.997Z,98186.22
2023-03-08T16:48:10.141Z,98184.56
2023-03-08T16:52:13.762Z,98189.34
2023-03-08T16:56:21.030Z,98185.00
2023-03-08T17:00:24.952Z,98197.63
2023-03-08T17:04:29.396Z,98188.13
2023-03-08T17:08:32.683Z,98176.72
2023-03-08T17:12:36.054Z,98159.75
2023-03-08T17:16:41.036Z,98164.91
2023-03-08T17:20:45.569Z,98163.72
2023-03-08T17:24:48.739Z,98170.16
2023-03-08T17:28:52.722Z,98168.50
2023-03-08T17:32:55.879Z,98172.22
2023-03-08T17:37:00.435Z,98186.56
2023-03-08T17:41:05.965Z,98182.19
2023-03-08T17:45:11.555Z,98187.97
2023-03-08T17:49:17.026Z,98177.44
2023-03-08T17:53:21.787Z,98188.84
2023-03-08T17:57:25.498Z,98185.94
2023-03-08T18:01:30.856Z,98175.41
2023-03-08T18:05:33.977Z,98171.66
2023-03-08T18:09:38.731Z,98163.56
2023-03-08T18:13:41.827Z,98177.66
2023-03-08T18:17:44.887Z,98171.44
2023-03-08T18:21:54.166Z,98170.63
2023-03-08T18:26:00.270Z,98171.06
2023-03-08T18:30:04.002Z,98175.16
2023-03-08T18:34:08.354Z,98186.38
2023-03-08T18:38:11.543Z,98173.09
2023-03-08T18:42:16.553Z,98172.72
2023-03-08T18:46:22.537Z,98169.78
2023-03-08T18:50:25.730Z,98159.41
2023-03-08T18:54:28.852Z,98152.78
2023-03-08T18:58:34.134Z,98157.34
2023-03-08T19:02:37.557Z,98172.72
2023-03-08T19:06:40.659Z,98172.28
2023-03-08T19:10:43.853Z,98172.22
2023-03-08T19:14:49.851Z,98155.44
2023-03-08T19:18:56.348Z,98140.56
2023-03-08T19:22:59.533Z,98132.47
2023-03-08T19:27:05.225Z,98136.59
2023-03-08T19:31:17.293Z,98139.88
2023-03-08T19:35:21.076Z,98132.91
2023-03-08T19:39:30.104Z,98142.63
2023-03-08T19:43:33.392Z,98137.00
2023-03-08T19:47:37.961Z,98142.41
2023-03-08T19:51:41.316Z,98135.78
2023-03-08T19:55:49.797Z,98138.66
2023-03-08T19:59:53.174Z,98146.97
2023-03-08T20:03:57.909Z,98150.06
2023-03-08T20:08:01.457Z,98151.94
2023-03-08T20:12:05.440Z,98143.84
2023-03-08T20:16:09.096Z,98139.88
2023-03-08T20:20:14.187Z,98132.66
2023-03-08T20:24:18.945Z,98132.03
2023-03-08T20:28:23.255Z,98147.34
2023-03-08T20:32:26.596Z,98148.22
2023-03-08T20:36:32.797Z,98125.31
2023-03-08T20:40:41.812Z,98113.97
2023-03-08T20:44:45.194Z,98120.66
2023-03-08T20:48:48.990Z,98129.09
2023-03-08T20:52:54.973Z,98140.75
2023-03-08T20:56:59.242Z,98140.75
2023-03-08T21:01:11.034Z,98148.59
2023-03-08T21:05:14.242Z,98146.47
2023-03-08T21:09:19.208Z,98129.53
2023-03-08T21:13:22.349Z,98121.22
2023-03-08T21:17:27.947Z,98111.69
2023-03-08T21:21:34.249Z,98101.91
2023-03-08T21:25:39.081Z,98096.34
2023-03-08T21:29:42.703Z,98099.22
2023-03-08T21:33:47.504Z,98085.13
2023-03-08T21:37:50.758Z,98079.50
2023-03-08T21:41:57.176Z,98068.94
2023-03-08T21:46:00.846Z,98060.63
2023-03-08T21:50:04.124Z,98078.91
2023-03-08T21:54:07.398Z,98076.00
2023-03-08T21:58:11.885Z,98067.09
2023-03-08T22:02:15.088Z,98066.63
2023-03-08T22:06:19.076Z,98050.25
2023-03-08T22:10:22.239Z,98048.22
2023-03-08T22:14:26.950Z,98044.03
2023-03-08T22:18:31.710Z,98037.75
2023-03-08T22:22:34.842Z,98022.88
2023-03-08T22:26:38.431Z,98002.97
2023-03-08T22:30:43.583Z,97996.09
2023-03-08T22:34:46.676Z,98003.44
2023-03-08T22:38:49.878Z,98006.28
2023-03-08T22:42:52.980Z,98012.28
2023-03-08T22:46:57.491Z,98034.88
2023-03-08T22:51:10.189Z,98039.41
2023-03-08T22:55:15.499Z,98024.06
2023-03-08T22:59:19.486Z,98009.56
2023-03-08T23:03:23.958Z,97994.63
2023-03-08T23:07:27.157Z,97996.28
2023-03-08T23:11:30.612Z,97983.41
2023-03-08T23:15:33.649Z,97979.72
2023-03-08T23:19:38.107Z,97974.72
2023-03-08T23:23:42.039Z,98000.47
2023-03-08T23:27:45.342Z,98006.44
2023-03-08T23:31:48.511Z,98001.66
2023-03-08T23:35:53.156Z,98036.09
2023-03-08T23:39:56.315Z,98055.22
2023-03-08T23:44:01.183Z,98029.63
2023-03-08T23:48:04.316Z,98021.16
2023-03-08T23:52:08.820Z,98044.38
2023-03-08T23:56:19.102Z,98048.94
